sensor_id;sensor_type;location;lat;lon;timestamp;pressure;altitude;pressure_sealevel;temperature;humidity
50302;BME280;36550;50.472;19.744;2023-09-18T00:00:21;98289.34;;;17.86;81.86
50302;BME280;36550;50.472;19.744;2023-09-18T00:03:05;98289.16;;;17.89;81.85
50302;BME280;36550;50.472;19.744;2023-09-18T00:05:49;98285.63;;;17.93;81.67
50302;BME280;36550;50.472;19.744;2023-09-18T00:08:33;98280.95;;;17.95;81.58
50302;BME280;36550;50.472;19.744;2023-09-18T00:11:17;98278.54;;;17.96;81.31
50302;BME280;36550;50.472;19.744;2023-09-18T00:14:01;98281.58;;;17.97;81.33
50302;BME280;36550;50.472;19.744;2023-09-18T00:16:46;98277.31;;;17.97;81.30
50302;BME280;36550;50.472;19.744;2023-09-18T00:19:32;98275.41;;;17.97;81.09
50302;BME280;36550;50.472;19.744;2023-09-18T00:22:17;98275.58;;;17.97;80.99
50302;BME280;36550;50.472;19.744;2023-09-18T00:25:02;98273.08;;;17.97;80.97
50302;BME280;36550;50.472;19.744;2023-09-18T00:27:46;98273.02;;;17.98;80.87
50302;BME280;36550;50.472;19.744;2023-09-18T00:30:29;98273.13;;;17.97;80.84
50302;BME280;36550;50.472;19.744;2023-09-18T00:33:14;98268.98;;;17.96;80.92
50302;BME280;36550;50.472;19.744;2023-09-18T00:35:58;98266.44;;;17.96;80.72
50302;BME280;36550;50.472;19.744;2023-09-18T00:38:42;98264.85;;;17.95;80.53
50302;BME280;36550;50.472;19.744;2023-09-18T00:41:27;98261.29;;;17.95;80.55
50302;BME280;36550;50.472;19.744;2023-09-18T00:44:11;98267.63;;;17.94;80.68
50302;BME280;36550;50.472;19.744;2023-09-18T00:46:55;98270.50;;;17.93;80.55
50302;BME280;36550;50.472;19.744;2023-09-18T00:49:41;98269.98;;;17.91;80.42
50302;BME280;36550;50.472;19.744;2023-09-18T00:52:27;98271.11;;;17.88;80.36
50302;BME280;36550;50.472;19.744;2023-09-18T00:55:11;98268.14;;;17.87;80.31
50302;BME280;36550;50.472;19.744;2023-09-18T00:57:56;98266.04;;;17.86;80.27
50302;BME280;36550;50.472;19.744;2023-09-18T01:00:41;98265.27;;;17.84;80.27
50302;BME280;36550;50.472;19.744;2023-09-18T01:03:25;98263.84;;;17.82;80.31
50302;BME280;36550;50.472;19.744;2023-09-18T01:06:09;98260.14;;;17.80;80.29
50302;BME280;36550;50.472;19.744;2023-09-18T01:08:54;98255.65;;;17.79;80.16
50302;BME280;36550;50.472;19.744;2023-09-18T01:11:54;98254.16;;;17.79;80.10
50302;BME280;36550;50.472;19.744;2023-09-18T01:14:50;98254.41;;;17.80;80.16
50302;BME280;36550;50.472;19.744;2023-09-18T01:17:38;98258.43;;;17.81;80.11
50302;BME280;36550;50.472;19.744;2023-09-18T01:20:23;98266.40;;;17.82;80.22
50302;BME280;36550;50.472;19.744;2023-09-18T01:23:07;98265.92;;;17.83;80.16
50302;BME280;36550;50.472;19.744;2023-09-18T01:25:52;98265.02;;;17.84;80.11
50302;BME280;36550;50.472;19.744;2023-09-18T01:28:36;98265.65;;;17.86;80.00
50302;BME280;36550;50.472;19.744;2023-09-18T01:31:21;98266.86;;;17.88;79.93
50302;BME280;36550;50.472;19.744;2023-09-18T01:34:05;98265.83;;;17.90;79.93
50302;BME280;36550;50.472;19.744;2023-09-18T01:36:51;98262.98;;;17.91;79.87
50302;BME280;36550;50.472;19.744;2023-09-18T01:39:36;98264.98;;;17.91;79.84
50302;BME280;36550;50.472;19.744;2023-09-18T01:42:20;98264.23;;;17.93;79.79
50302;BME280;36550;50.472;19.744;2023-09-18T01:45:05;98264.80;;;17.95;79.70
50302;BME280;36550;50.472;19.744;2023-09-18T01:47:49;98265.80;;;17.98;79.65
50302;BME280;36550;50.472;19.744;2023-09-18T01:50:36;98265.66;;;18.00;79.62
50302;BME280;36550;50.472;19.744;2023-09-18T01:53:20;98266.03;;;18.02;79.58
50302;BME280;36550;50.472;19.744;2023-09-18T01:56:04;98266.39;;;18.04;79.62
50302;BME280;36550;50.472;19.744;2023-09-18T01:58:49;98267.55;;;18.05;79.49
50302;BME280;36550;50.472;19.744;2023-09-18T02:01:33;98266.59;;;18.05;79.41
50302;BME280;36550;50.472;19.744;2023-09-18T02:04:20;98267.84;;;18.03;79.16
50302;BME280;36550;50.472;19.744;2023-09-18T02:07:05;98267.21;;;17.99;78.99
50302;BME280;36550;50.472;19.744;2023-09-18T02:09:50;98268.95;;;17.95;78.78
50302;BME280;36550;50.472;19.744;2023-09-18T02:12:34;98266.91;;;17.88;78.79
50302;BME280;36550;50.472;19.744;2023-09-18T02:15:18;98266.23;;;17.82;78.80
50302;BME280;36550;50.472;19.744;2023-09-18T02:18:03;98263.25;;;17.75;78.63
50302;BME280;36550;50.472;19.744;2023-09-18T02:20:47;98264.09;;;17.67;78.62
50302;BME280;36550;50.472;19.744;2023-09-18T02:23:32;98261.69;;;17.60;78.63
50302;BME280;36550;50.472;19.744;2023-09-18T02:26:20;98262.94;;;17.56;78.75
50302;BME280;36550;50.472;19.744;2023-09-18T02:29:09;98260.88;;;17.52;78.79
50302;BME280;36550;50.472;19.744;2023-09-18T02:31:58;98265.88;;;17.50;78.78
50302;BME280;36550;50.472;19.744;2023-09-18T02:34:42;98266.11;;;17.47;78.73
50302;BME280;36550;50.472;19.744;2023-09-18T02:37:26;98267.45;;;17.42;78.81
50302;BME280;36550;50.472;19.744;2023-09-18T02:40:11;98265.31;;;17.35;78.70
50302;BME280;36550;50.472;19.744;2023-09-18T02:42:55;98266.45;;;17.29;78.77
50302;BME280;36550;50.472;19.744;2023-09-18T02:45:40;98263.36;;;17.21;78.82
50302;BME280;36550;50.472;19.744;2023-09-18T02:48:24;98264.23;;;17.14;78.74
50302;BME280;36550;50.472;19.744;2023-09-18T02:51:08;98261.02;;;17.07;78.72
50302;BME280;36550;50.472;19.744;2023-09-18T02:53:52;98260.92;;;17.02;78.84
50302;BME280;36550;50.472;19.744;2023-09-18T02:56:36;98261.67;;;16.99;79.02
50302;BME280;36550;50.472;19.744;2023-09-18T02:59:21;98256.92;;;16.93;79.06
50302;BME280;36550;50.472;19.744;2023-09-18T03:02:05;98254.34;;;16.89;78.98
50302;BME280;36550;50.472;19.744;2023-09-18T03:04:50;98255.88;;;16.83;79.09
50302;BME280;36550;50.472;19.744;2023-09-18T03:07:34;98255.13;;;16.77;79.03
50302;BME280;36550;50.472;19.744;2023-09-18T03:10:18;98258.69;;;16.72;79.08
50302;BME280;36550;50.472;19.744;2023-09-18T03:13:03;98256.31;;;16.67;79.09
50302;BME280;36550;50.472;19.744;2023-09-18T03:15:48;98250.17;;;16.62;79.10
50302;BME280;36550;50.472;19.744;2023-09-18T03:18:33;98245.94;;;16.59;79.16
50302;BME280;36550;50.472;19.744;2023-09-18T03:21:16;98243.02;;;16.56;79.32
50302;BME280;36550;50.472;19.744;2023-09-18T03:24:01;98238.80;;;16.52;79.43
50302;BME280;36550;50.472;19.744;2023-09-18T03:26:45;98235.36;;;16.47;79.42
50302;BME280;36550;50.472;19.744;2023-09-18T03:29:29;98236.26;;;16.42;79.30
50302;BME280;36550;50.472;19.744;2023-09-18T03:32:13;98233.61;;;16.36;79.25
50302;BME280;36550;50.472;19.744;2023-09-18T03:34:58;98236.21;;;16.32;79.42
50302;BME280;36550;50.472;19.744;2023-09-18T03:37:41;98238.71;;;16.30;79.53
50302;BME280;36550;50.472;19.744;2023-09-18T03:40:25;98232.95;;;16.29;79.72
50302;BME280;36550;50.472;19.744;2023-09-18T03:43:11;98230.45;;;16.26;79.70
50302;BME280;36550;50.472;19.744;2023-09-18T03:46:03;98230.45;;;16.24;79.87
50302;BME280;36550;50.472;19.744;2023-09-18T03:48:47;98224.78;;;16.20;79.79
50302;BME280;36550;50.472;19.744;2023-09-18T03:51:31;98226.85;;;16.14;79.62
50302;BME280;36550;50.472;19.744;2023-09-18T03:54:15;98222.72;;;16.05;79.46
50302;BME280;36550;50.472;19.744;2023-09-18T03:56:59;98222.83;;;16.00;79.42
50302;BME280;36550;50.472;19.744;2023-09-18T03:59:43;98221.59;;;15.93;79.48
50302;BME280;36550;50.472;19.744;2023-09-18T04:02:27;98221.90;;;15.88;79.39
50302;BME280;36550;50.472;19.744;2023-09-18T04:05:12;98220.42;;;15.85;79.56
50302;BME280;36550;50.472;19.744;2023-09-18T04:07:56;98219.21;;;15.81;79.59
50302;BME280;36550;50.472;19.744;2023-09-18T04:10:40;98218.73;;;15.77;79.74
50302;BME280;36550;50.472;19.744;2023-09-18T04:13:25;98218.39;;;15.73;79.88
50302;BME280;36550;50.472;19.744;2023-09-18T04:16:09;98211.95;;;15.69;79.80
50302;BME280;36550;50.472;19.744;2023-09-18T04:18:55;98206.77;;;15.66;79.97
50302;BME280;36550;50.472;19.744;2023-09-18T04:21:39;98201.90;;;15.64;80.03
50302;BME280;36550;50.472;19.744;2023-09-18T04:24:23;98196.71;;;15.62;80.10
50302;BME280;36550;50.472;19.744;2023-09-18T04:27:06;98193.80;;;15.63;80.47
50302;BME280;36550;50.472;19.744;2023-09-18T04:29:50;98191.26;;;15.65;80.69
50302;BME280;36550;50.472;19.744;2023-09-18T04:32:36;98191.84;;;15.67;80.95
50302;BME280;36550;50.472;19.744;2023-09-18T04:35:21;98192.86;;;15.68;81.10
50302;BME280;36550;50.472;19.744;2023-09-18T04:38:09;98195.49;;;15.68;81.14
50302;BME280;36550;50.472;19.744;2023-09-18T04:40:58;98200.54;;;15.71;81.34
50302;BME280;36550;50.472;19.744;2023-09-18T04:43:43;98205.73;;;15.73;81.45
50302;BME280;36550;50.472;19.744;2023-09-18T04:46:27;98203.27;;;15.76;81.54
50302;BME280;36550;50.472;19.744;2023-09-18T04:49:11;98203.21;;;15.80;81.68
50302;BME280;36550;50.472;19.744;2023-09-18T04:51:55;98200.31;;;15.83;81.74
50302;BME280;36550;50.472;19.744;2023-09-18T04:54:39;98192.86;;;15.86;81.87
50302;BME280;36550;50.472;19.744;2023-09-18T04:57:24;98191.95;;;15.86;81.94
50302;BME280;36550;50.472;19.744;2023-09-18T05:00:08;98190.21;;;15.86;81.89
50302;BME280;36550;50.472;19.744;2023-09-18T05:02:56;98187.83;;;15.85;81.94
50302;BME280;36550;50.472;19.744;2023-09-18T05:05:41;98185.39;;;15.86;81.94
50302;BME280;36550;50.472;19.744;2023-09-18T05:08:25;98188.72;;;15.87;81.99
50302;BME280;36550;50.472;19.744;2023-09-18T05:11:08;98186.11;;;15.88;81.97
50302;BME280;36550;50.472;19.744;2023-09-18T05:13:53;98183.59;;;15.89;81.97
50302;BME280;36550;50.472;19.744;2023-09-18T05:16:37;98180.41;;;15.90;82.10
50302;BME280;36550;50.472;19.744;2023-09-18T05:19:22;98177.71;;;15.91;82.23
50302;BME280;36550;50.472;19.744;2023-09-18T05:22:08;98173.85;;;15.93;82.38
50302;BME280;36550;50.472;19.744;2023-09-18T05:24:54;98179.45;;;15.96;82.53
50302;BME280;36550;50.472;19.744;2023-09-18T05:27:38;98178.40;;;16.01;82.54
50302;BME280;36550;50.472;19.744;2023-09-18T05:30:30;98176.13;;;16.05;82.70
50302;BME280;36550;50.472;19.744;2023-09-18T05:33:17;98179.45;;;16.11;83.01
50302;BME280;36550;50.472;19.744;2023-09-18T05:36:02;98176.54;;;16.17;83.16
50302;BME280;36550;50.472;19.744;2023-09-18T05:38:47;98177.11;;;16.23;83.31
50302;BME280;36550;50.472;19.744;2023-09-18T05:41:31;98174.56;;;16.29;83.47
50302;BME280;36550;50.472;19.744;2023-09-18T05:44:15;98172.07;;;16.36;83.58
50302;BME280;36550;50.472;19.744;2023-09-18T05:46:59;98165.43;;;16.42;83.78
50302;BME280;36550;50.472;19.744;2023-09-18T05:49:43;98163.61;;;16.48;84.02
50302;BME280;36550;50.472;19.744;2023-09-18T05:52:27;98160.68;;;16.54;84.07
50302;BME280;36550;50.472;19.744;2023-09-18T05:55:13;98159.19;;;16.62;84.25
50302;BME280;36550;50.472;19.744;2023-09-18T05:57:59;98159.80;;;16.72;84.38
50302;BME280;36550;50.472;19.744;2023-09-18T06:00:44;98157.05;;;16.82;84.49
50302;BME280;36550;50.472;19.744;2023-09-18T06:03:28;98148.34;;;16.93;84.66
50302;BME280;36550;50.472;19.744;2023-09-18T06:06:14;98146.88;;;17.07;84.67
50302;BME280;36550;50.472;19.744;2023-09-18T06:08:58;98148.52;;;17.20;84.73
50302;BME280;36550;50.472;19.744;2023-09-18T06:11:42;98150.10;;;17.33;84.75
50302;BME280;36550;50.472;19.744;2023-09-18T06:14:26;98152.77;;;17.45;84.59
50302;BME280;36550;50.472;19.744;2023-09-18T06:17:10;98156.78;;;17.57;84.52
50302;BME280;36550;50.472;19.744;2023-09-18T06:19:54;98152.55;;;17.69;84.47
50302;BME280;36550;50.472;19.744;2023-09-18T06:22:40;98143.86;;;17.82;84.36
50302;BME280;36550;50.472;19.744;2023-09-18T06:25:24;98143.09;;;17.94;84.29
50302;BME280;36550;50.472;19.744;2023-09-18T06:28:08;98141.17;;;18.08;84.22
50302;BME280;36550;50.472;19.744;2023-09-18T06:30:52;98142.21;;;18.21;84.00
50302;BME280;36550;50.472;19.744;2023-09-18T06:33:37;98142.23;;;18.34;83.97
50302;BME280;36550;50.472;19.744;2023-09-18T06:36:22;98134.42;;;18.44;83.75
50302;BME280;36550;50.472;19.744;2023-09-18T06:39:06;98130.06;;;18.54;83.69
50302;BME280;36550;50.472;19.744;2023-09-18T06:41:51;98125.27;;;18.64;83.37
50302;BME280;36550;50.472;19.744;2023-09-18T06:44:35;98128.96;;;18.75;83.27
50302;BME280;36550;50.472;19.744;2023-09-18T06:47:19;98125.31;;;18.85;82.99
50302;BME280;36550;50.472;19.744;2023-09-18T06:50:03;98128.58;;;18.97;82.98
50302;BME280;36550;50.472;19.744;2023-09-18T06:52:48;98127.08;;;19.09;82.86
50302;BME280;36550;50.472;19.744;2023-09-18T06:55:33;98127.88;;;19.21;82.61
50302;BME280;36550;50.472;19.744;2023-09-18T06:58:17;98128.73;;;19.32;82.44
50302;BME280;36550;50.472;19.744;2023-09-18T07:01:02;98130.66;;;19.41;81.99
50302;BME280;36550;50.472;19.744;2023-09-18T07:03:50;98135.58;;;19.51;81.79
50302;BME280;36550;50.472;19.744;2023-09-18T07:06:34;98134.02;;;19.59;81.53
50302;BME280;36550;50.472;19.744;2023-09-18T07:09:18;98138.30;;;19.69;81.40
50302;BME280;36550;50.472;19.744;2023-09-18T07:12:02;98141.23;;;19.76;81.17
50302;BME280;36550;50.472;19.744;2023-09-18T07:14:47;98138.13;;;19.85;81.00
50302;BME280;36550;50.472;19.744;2023-09-18T07:17:34;98134.30;;;19.94;80.70
50302;BME280;36550;50.472;19.744;2023-09-18T07:20:19;98132.91;;;20.03;80.42
50302;BME280;36550;50.472;19.744;2023-09-18T07:23:03;98133.60;;;20.12;80.36
50302;BME280;36550;50.472;19.744;2023-09-18T07:25:48;98130.86;;;20.23;80.10
50302;BME280;36550;50.472;19.744;2023-09-18T07:28:32;98133.23;;;20.33;79.74
50302;BME280;36550;50.472;19.744;2023-09-18T07:31:16;98136.17;;;20.44;79.25
50302;BME280;36550;50.472;19.744;2023-09-18T07:34:00;98134.82;;;20.53;79.42
50302;BME280;36550;50.472;19.744;2023-09-18T07:36:45;98128.70;;;20.62;79.25
50302;BME280;36550;50.472;19.744;2023-09-18T07:39:28;98126.20;;;20.70;78.96
50302;BME280;36550;50.472;19.744;2023-09-18T07:42:12;98124.91;;;20.79;78.43
50302;BME280;36550;50.472;19.744;2023-09-18T07:44:56;98126.26;;;20.88;78.24
50302;BME280;36550;50.472;19.744;2023-09-18T07:47:41;98127.90;;;20.99;78.16
50302;BME280;36550;50.472;19.744;2023-09-18T07:50:25;98128.77;;;21.08;77.91
50302;BME280;36550;50.472;19.744;2023-09-18T07:53:11;98128.06;;;21.17;77.24
50302;BME280;36550;50.472;19.744;2023-09-18T07:55:58;98130.05;;;21.26;77.46
50302;BME280;36550;50.472;19.744;2023-09-18T07:58:42;98130.31;;;21.30;77.01
50302;BME280;36550;50.472;19.744;2023-09-18T08:01:27;98127.18;;;21.37;76.53
50302;BME280;36550;50.472;19.744;2023-09-18T08:04:11;98123.31;;;21.43;76.42
50302;BME280;36550;50.472;19.744;2023-09-18T08:06:55;98123.36;;;21.49;76.49
50302;BME280;36550;50.472;19.744;2023-09-18T08:09:39;98121.03;;;21.53;76.40
50302;BME280;36550;50.472;19.744;2023-09-18T08:12:24;98120.38;;;21.58;76.34
50302;BME280;36550;50.472;19.744;2023-09-18T08:15:08;98120.57;;;21.63;76.45
50302;BME280;36550;50.472;19.744;2023-09-18T08:17:53;98120.09;;;21.69;76.31
50302;BME280;36550;50.472;19.744;2023-09-18T08:20:43;98111.83;;;21.73;76.08
50302;BME280;36550;50.472;19.744;2023-09-18T08:23:27;98107.77;;;21.78;75.88
50302;BME280;36550;50.472;19.744;2023-09-18T08:26:11;98104.02;;;21.80;75.37
50302;BME280;36550;50.472;19.744;2023-09-18T08:28:55;98103.55;;;21.84;74.96
50302;BME280;36550;50.472;19.744;2023-09-18T08:31:39;98099.79;;;21.89;74.52
50302;BME280;36550;50.472;19.744;2023-09-18T08:34:24;98098.16;;;21.95;73.88
50302;BME280;36550;50.472;19.744;2023-09-18T08:37:07;98090.31;;;22.00;73.29
50302;BME280;36550;50.472;19.744;2023-09-18T08:39:53;98088.42;;;22.05;73.17
50302;BME280;36550;50.472;19.744;2023-09-18T08:42:39;98088.52;;;22.10;72.64
50302;BME280;36550;50.472;19.744;2023-09-18T08:45:52;98086.34;;;22.17;72.79
50302;BME280;36550;50.472;19.744;2023-09-18T08:48:37;98081.17;;;22.27;72.55
50302;BME280;36550;50.472;19.744;2023-09-18T08:51:22;98076.84;;;22.35;72.64
50302;BME280;36550;50.472;19.744;2023-09-18T08:54:07;98071.70;;;22.40;72.33
50302;BME280;36550;50.472;19.744;2023-09-18T08:56:52;98063.37;;;22.43;71.97
50302;BME280;36550;50.472;19.744;2023-09-18T08:59:39;98063.41;;;22.47;71.81
50302;BME280;36550;50.472;19.744;2023-09-18T09:02:23;98059.45;;;22.49;71.50
50302;BME280;36550;50.472;19.744;2023-09-18T09:05:07;98063.70;;;22.52;71.32
50302;BME280;36550;50.472;19.744;2023-09-18T09:07:51;98063.39;;;22.54;71.29
50302;BME280;36550;50.472;19.744;2023-09-18T09:10:36;98065.75;;;22.55;70.11
50302;BME280;36550;50.472;19.744;2023-09-18T09:13:20;98062.05;;;22.59;69.17
50302;BME280;36550;50.472;19.744;2023-09-18T09:16:11;98064.70;;;22.63;68.03
50302;BME280;36550;50.472;19.744;2023-09-18T09:18:55;98060.40;;;22.70;68.30
50302;BME280;36550;50.472;19.744;2023-09-18T09:21:41;98059.79;;;22.76;67.95
50302;BME280;36550;50.472;19.744;2023-09-18T09:24:43;98062.63;;;22.82;67.40
50302;BME280;36550;50.472;19.744;2023-09-18T09:27:27;98052.14;;;22.86;67.32
50302;BME280;36550;50.472;19.744;2023-09-18T09:30:19;98052.12;;;22.92;67.02
50302;BME280;36550;50.472;19.744;2023-09-18T09:33:04;98052.91;;;22.95;66.40
50302;BME280;36550;50.472;19.744;2023-09-18T09:35:49;98046.20;;;22.99;66.29
50302;BME280;36550;50.472;19.744;2023-09-18T09:38:34;98044.09;;;23.00;66.20
50302;BME280;36550;50.472;19.744;2023-09-18T09:41:18;98041.83;;;23.02;65.23
50302;BME280;36550;50.472;19.744;2023-09-18T09:44:04;98040.21;;;23.07;64.95
50302;BME280;36550;50.472;19.744;2023-09-18T09:46:50;98043.52;;;23.13;63.96
50302;BME280;36550;50.472;19.744;2023-09-18T09:49:45;98035.30;;;23.15;64.31
50302;BME280;36550;50.472;19.744;2023-09-18T09:52:30;98034.65;;;23.20;63.46
50302;BME280;36550;50.472;19.744;2023-09-18T09:55:22;98036.66;;;23.26;63.58
50302;BME280;36550;50.472;19.744;2023-09-18T09:58:09;98036.23;;;23.30;63.36
50302;BME280;36550;50.472;19.744;2023-09-18T10:00:57;98033.60;;;23.33;63.80
50302;BME280;36550;50.472;19.744;2023-09-18T10:03:44;98031.42;;;23.36;63.26
50302;BME280;36550;50.472;19.744;2023-09-18T10:06:30;98028.27;;;23.39;62.95
50302;BME280;36550;50.472;19.744;2023-09-18T10:09:19;98017.77;;;23.40;62.44
50302;BME280;36550;50.472;19.744;2023-09-18T10:12:10;98020.57;;;23.45;61.94
50302;BME280;36550;50.472;19.744;2023-09-18T10:14:56;98019.89;;;23.49;61.70
50302;BME280;36550;50.472;19.744;2023-09-18T10:17:43;98015.19;;;23.52;61.75
50302;BME280;36550;50.472;19.744;2023-09-18T10:20:30;98008.47;;;23.54;61.13
50302;BME280;36550;50.472;19.744;2023-09-18T10:23:32;98012.09;;;23.58;60.93
50302;BME280;36550;50.472;19.744;2023-09-18T10:26:22;98011.00;;;23.63;60.13
50302;BME280;36550;50.472;19.744;2023-09-18T10:29:14;98003.49;;;23.66;60.10
50302;BME280;36550;50.472;19.744;2023-09-18T10:31:59;98002.99;;;23.67;59.87
50302;BME280;36550;50.472;19.744;2023-09-18T10:34:47;97996.58;;;23.69;59.93
50302;BME280;36550;50.472;19.744;2023-09-18T10:37:32;97992.32;;;23.71;59.60
50302;BME280;36550;50.472;19.744;2023-09-18T10:40:17;97990.98;;;23.74;59.41
50302;BME280;36550;50.472;19.744;2023-09-18T10:43:02;97987.56;;;23.77;60.02
50302;BME280;36550;50.472;19.744;2023-09-18T10:45:49;97987.73;;;23.79;60.03
50302;BME280;36550;50.472;19.744;2023-09-18T10:48:35;97989.09;;;23.80;59.42
50302;BME280;36550;50.472;19.744;2023-09-18T10:51:21;97991.01;;;23.82;59.77
50302;BME280;36550;50.472;19.744;2023-09-18T10:54:10;97988.93;;;23.83;59.65
50302;BME280;36550;50.472;19.744;2023-09-18T10:56:56;97981.90;;;23.83;59.01
50302;BME280;36550;50.472;19.744;2023-09-18T10:59:47;97977.72;;;23.85;58.70
50302;BME280;36550;50.472;19.744;2023-09-18T11:02:31;97977.46;;;23.88;58.82
50302;BME280;36550;50.472;19.744;2023-09-18T11:05:28;97979.78;;;23.92;59.06
50302;BME280;36550;50.472;19.744;2023-09-18T11:08:30;97974.97;;;23.94;58.70
50302;BME280;36550;50.472;19.744;2023-09-18T11:11:18;97975.30;;;23.97;58.58
50302;BME280;36550;50.472;19.744;2023-09-18T11:14:10;97971.61;;;23.98;58.34
50302;BME280;36550;50.472;19.744;2023-09-18T11:16:55;97974.52;;;24.01;58.42
50302;BME280;36550;50.472;19.744;2023-09-18T11:19:41;97968.46;;;24.02;58.64
50302;BME280;36550;50.472;19.744;2023-09-18T11:22:26;97965.05;;;24.05;58.87
50302;BME280;36550;50.472;19.744;2023-09-18T11:28:31;97963.13;;;24.13;58.42
50302;BME280;36550;50.472;19.744;2023-09-18T11:31:16;97960.55;;;24.16;58.75
50302;BME280;36550;50.472;19.744;2023-09-18T11:34:03;97959.61;;;24.17;58.64
50302;BME280;36550;50.472;19.744;2023-09-18T11:36:55;97961.42;;;24.19;58.54
50302;BME280;36550;50.472;19.744;2023-09-18T11:39:40;97954.43;;;24.18;57.53
50302;BME280;36550;50.472;19.744;2023-09-18T11:42:25;97956.45;;;24.19;57.78
50302;BME280;36550;50.472;19.744;2023-09-18T11:45:16;97958.30;;;24.21;57.87
50302;BME280;36550;50.472;19.744;2023-09-18T11:48:01;97955.63;;;24.24;57.99
50302;BME280;36550;50.472;19.744;2023-09-18T11:50:47;97952.36;;;24.26;57.20
50302;BME280;36550;50.472;19.744;2023-09-18T11:53:36;97949.00;;;24.29;56.94
50302;BME280;36550;50.472;19.744;2023-09-18T11:56:24;97945.80;;;24.31;57.25
50302;BME280;36550;50.472;19.744;2023-09-18T11:59:08;97943.58;;;24.33;57.05
50302;BME280;36550;50.472;19.744;2023-09-18T12:01:54;97943.27;;;24.35;57.28
50302;BME280;36550;50.472;19.744;2023-09-18T12:04:45;97936.13;;;24.37;57.09
50302;BME280;36550;50.472;19.744;2023-09-18T12:07:31;97934.36;;;24.38;57.44
50302;BME280;36550;50.472;19.744;2023-09-18T12:10:16;97932.04;;;24.40;57.45
50302;BME280;36550;50.472;19.744;2023-09-18T12:13:05;97928.98;;;24.41;57.53
50302;BME280;36550;50.472;19.744;2023-09-18T12:15:56;97927.08;;;24.41;57.34
50302;BME280;36550;50.472;19.744;2023-09-18T12:18:45;97921.84;;;24.40;57.18
50302;BME280;36550;50.472;19.744;2023-09-18T12:21:31;97924.71;;;24.39;57.08
50302;BME280;36550;50.472;19.744;2023-09-18T12:24:25;97920.18;;;24.39;57.34
50302;BME280;36550;50.472;19.744;2023-09-18T12:27:09;97912.81;;;24.36;57.23
50302;BME280;36550;50.472;19.744;2023-09-18T12:29:53;97907.00;;;24.34;57.31
50302;BME280;36550;50.472;19.744;2023-09-18T12:32:38;97902.46;;;24.32;57.46
50302;BME280;36550;50.472;19.744;2023-09-18T12:35:23;97894.94;;;24.30;57.63
50302;BME280;36550;50.472;19.744;2023-09-18T12:38:16;97891.92;;;24.29;57.03
50302;BME280;36550;50.472;19.744;2023-09-18T12:41:04;97888.06;;;24.28;57.11
50302;BME280;36550;50.472;19.744;2023-09-18T12:43:53;97884.20;;;24.27;57.30
50302;BME280;36550;50.472;19.744;2023-09-18T12:46:38;97881.53;;;24.26;57.59
50302;BME280;36550;50.472;19.744;2023-09-18T12:49:30;97880.73;;;24.24;57.73
50302;BME280;36550;50.472;19.744;2023-09-18T12:52:21;97875.59;;;24.22;57.65
50302;BME280;36550;50.472;19.744;2023-09-18T12:55:06;97873.90;;;24.20;57.60
50302;BME280;36550;50.472;19.744;2023-09-18T12:57:52;97871.70;;;24.19;57.40
50302;BME280;36550;50.472;19.744;2023-09-18T13:00:36;97870.91;;;24.17;57.09
50302;BME280;36550;50.472;19.744;2023-09-18T13:03:20;97868.04;;;24.17;57.18
50302;BME280;36550;50.472;19.744;2023-09-18T13:06:09;97868.95;;;24.17;57.16
50302;BME280;36550;50.472;19.744;2023-09-18T13:08:53;97865.27;;;24.16;56.86
50302;BME280;36550;50.472;19.744;2023-09-18T13:11:52;97864.23;;;24.16;56.91
50302;BME280;36550;50.472;19.744;2023-09-18T13:17:45;97855.64;;;24.15;57.40
50302;BME280;36550;50.472;19.744;2023-09-18T13:20:30;97854.65;;;24.15;57.22
50302;BME280;36550;50.472;19.744;2023-09-18T13:23:14;97852.25;;;24.14;57.45
50302;BME280;36550;50.472;19.744;2023-09-18T13:26:04;97845.56;;;24.14;57.63
50302;BME280;36550;50.472;19.744;2023-09-18T13:28:49;97838.71;;;24.12;57.74
50302;BME280;36550;50.472;19.744;2023-09-18T13:31:33;97842.15;;;24.11;57.68
50302;BME280;36550;50.472;19.744;2023-09-18T13:34:17;97836.66;;;24.09;57.51
50302;BME280;36550;50.472;19.744;2023-09-18T13:37:02;97832.67;;;24.09;57.32
50302;BME280;36550;50.472;19.744;2023-09-18T13:39:46;97830.73;;;24.10;57.44
50302;BME280;36550;50.472;19.744;2023-09-18T13:42:30;97828.98;;;24.13;57.50
50302;BME280;36550;50.472;19.744;2023-09-18T13:45:14;97827.63;;;24.16;57.53
50302;BME280;36550;50.472;19.744;2023-09-18T13:48:03;97822.95;;;24.22;56.81
50302;BME280;36550;50.472;19.744;2023-09-18T13:50:48;97819.10;;;24.28;55.87
50302;BME280;36550;50.472;19.744;2023-09-18T13:53:33;97817.20;;;24.33;56.14
50302;BME280;36550;50.472;19.744;2023-09-18T13:56:17;97816.79;;;24.36;56.21
50302;BME280;36550;50.472;19.744;2023-09-18T13:59:01;97815.82;;;24.39;56.32
50302;BME280;36550;50.472;19.744;2023-09-18T14:01:45;97816.69;;;24.40;56.40
50302;BME280;36550;50.472;19.744;2023-09-18T14:04:30;97815.19;;;24.39;56.33
50302;BME280;36550;50.472;19.744;2023-09-18T14:07:14;97813.52;;;24.37;56.21
50302;BME280;36550;50.472;19.744;2023-09-18T14:09:58;97804.36;;;24.33;56.05
50302;BME280;36550;50.472;19.744;2023-09-18T14:12:43;97801.92;;;24.30;55.73
50302;BME280;36550;50.472;19.744;2023-09-18T14:15:29;97804.55;;;24.26;55.80
50302;BME280;36550;50.472;19.744;2023-09-18T14:18:13;97807.55;;;24.24;55.91
50302;BME280;36550;50.472;19.744;2023-09-18T14:20:57;97804.46;;;24.21;55.22
50302;BME280;36550;50.472;19.744;2023-09-18T14:23:42;97802.55;;;24.19;55.41
50302;BME280;36550;50.472;19.744;2023-09-18T14:26:26;97797.27;;;24.17;55.64
50302;BME280;36550;50.472;19.744;2023-09-18T14:29:10;97793.63;;;24.16;55.73
50302;BME280;36550;50.472;19.744;2023-09-18T14:31:54;97789.06;;;24.15;55.72